createdAt,value
2018-06-20T00:00:52.542Z,19.03
2018-06-20T00:03:21.671Z,19.07
2018-06-20T00:05:50.800Z,19.05
2018-06-20T00:08:19.932Z,19.01
2018-06-20T00:10:49.046Z,18.98
2018-06-20T00:13:18.529Z,18.98
2018-06-20T00:15:47.677Z,18.96
2018-06-20T00:18:16.825Z,18.95
2018-06-20T00:20:45.956Z,18.97
2018-06-20T00:23:15.081Z,18.97
2018-06-20T00:25:44.214Z,18.91
2018-06-20T00:28:13.421Z,18.91
2018-06-20T00:30:42.569Z,18.89
2018-06-20T00:33:11.707Z,18.84
2018-06-20T00:35:40.858Z,18.83
2018-06-20T00:38:09.977Z,18.80
2018-06-20T00:40:39.088Z,18.72
2018-06-20T00:43:08.238Z,18.73
2018-06-20T00:45:37.361Z,18.68
2018-06-20T00:48:06.614Z,18.64
2018-06-20T00:50:35.729Z,18.65
2018-06-20T00:53:04.873Z,18.61
2018-06-20T00:55:50.955Z,18.65
2018-06-20T00:58:20.077Z,18.61
2018-06-20T01:00:49.004Z,18.64
2018-06-20T01:03:18.137Z,18.59
2018-06-20T01:05:47.270Z,18.64
2018-06-20T01:08:16.412Z,18.63
2018-06-20T01:10:45.545Z,18.60
2018-06-20T01:13:14.677Z,18.53
2018-06-20T01:15:44.032Z,18.57
2018-06-20T01:18:13.269Z,18.59
2018-06-20T01:20:42.542Z,18.57
2018-06-20T01:23:11.767Z,18.53
2018-06-20T01:25:40.885Z,18.54
2018-06-20T01:28:10.025Z,18.54
2018-06-20T01:30:39.154Z,18.53
2018-06-20T01:33:08.273Z,18.52
2018-06-20T01:35:37.396Z,18.50
2018-06-20T01:38:06.542Z,18.48
2018-06-20T01:40:35.682Z,18.45
2018-06-20T01:43:04.861Z,18.48
2018-06-20T01:45:33.985Z,18.44
2018-06-20T01:48:03.119Z,18.48
2018-06-20T01:50:32.241Z,18.48
2018-06-20T01:53:01.857Z,18.45
2018-06-20T01:55:31.001Z,18.38
2018-06-20T01:58:00.102Z,18.36
2018-06-20T02:00:29.230Z,18.29
2018-06-20T02:02:58.358Z,18.26
2018-06-20T02:05:27.541Z,18.26
2018-06-20T02:07:56.664Z,18.23
2018-06-20T02:10:25.790Z,18.20
2018-06-20T02:12:54.904Z,18.15
2018-06-20T02:15:24.034Z,18.14
2018-06-20T02:17:53.137Z,18.12
2018-06-20T02:20:22.245Z,18.11
2018-06-20T02:22:51.372Z,18.08
2018-06-20T02:25:20.497Z,18.05
2018-06-20T02:27:49.617Z,18.05
2018-06-20T02:30:18.749Z,17.98
2018-06-20T02:32:47.874Z,17.96
2018-06-20T02:35:16.993Z,17.95
2018-06-20T02:37:46.114Z,17.91
2018-06-20T02:40:15.240Z,17.91
2018-06-20T02:42:44.381Z,17.90
2018-06-20T02:45:13.501Z,17.84
2018-06-20T02:47:43.686Z,17.81
2018-06-20T02:50:13.806Z,17.83
2018-06-20T02:52:43.024Z,17.82
2018-06-20T02:55:12.097Z,17.77
2018-06-20T02:57:41.217Z,17.78
2018-06-20T03:00:10.334Z,17.78
2018-06-20T03:02:39.478Z,17.76
2018-06-20T03:05:08.644Z,17.72
2018-06-20T03:07:37.754Z,17.71
2018-06-20T03:10:06.965Z,17.71
2018-06-20T03:12:36.066Z,17.69
2018-06-20T03:15:05.295Z,17.70
2018-06-20T03:20:02.630Z,17.74
2018-06-20T03:22:31.746Z,17.76
2018-06-20T03:25:01.397Z,17.73
2018-06-20T03:27:30.522Z,17.74
2018-06-20T03:29:59.650Z,17.71
2018-06-20T03:32:28.775Z,17.70
2018-06-20T03:34:57.909Z,17.70
2018-06-20T03:37:27.025Z,17.70
2018-06-20T03:39:56.145Z,17.67
2018-06-20T03:42:25.276Z,17.65
2018-06-20T03:44:54.399Z,17.62
2018-06-20T03:47:23.528Z,17.67
2018-06-20T03:49:52.696Z,17.69
2018-06-20T03:52:21.801Z,17.64
2018-06-20T03:54:50.937Z,17.63
2018-06-20T03:57:20.053Z,17.61
2018-06-20T03:59:49.268Z,17.65
2018-06-20T04:02:18.427Z,17.65
2018-06-20T04:04:47.494Z,17.59
2018-06-20T04:07:16.620Z,17.60
2018-06-20T04:09:45.758Z,17.63
2018-06-20T04:12:14.966Z,17.64
2018-06-20T04:14:44.097Z,17.64
2018-06-20T04:17:13.232Z,17.68
2018-06-20T04:19:42.350Z,17.72
2018-06-20T04:22:11.484Z,17.73
2018-06-20T04:24:40.593Z,17.75
2018-06-20T04:27:09.717Z,17.77
2018-06-20T04:29:38.840Z,17.84
2018-06-20T04:32:08.102Z,17.90
2018-06-20T04:34:37.267Z,17.96
2018-06-20T04:37:06.355Z,17.96
2018-06-20T04:39:35.488Z,17.89
2018-06-20T04:42:04.629Z,17.94
2018-06-20T04:44:33.848Z,17.91
2018-06-20T04:47:02.937Z,17.98
2018-06-20T04:49:32.069Z,18.02
2018-06-20T04:52:01.222Z,18.06
2018-06-20T04:54:30.494Z,18.07
2018-06-20T04:56:59.631Z,18.07
2018-06-20T04:59:28.744Z,18.00
2018-06-20T05:02:04.554Z,18.06
2018-06-20T05:04:33.669Z,18.07
2018-06-20T05:07:02.794Z,18.09
2018-06-20T05:09:31.942Z,18.12
2018-06-20T05:12:01.056Z,18.20
2018-06-20T05:14:30.177Z,18.26
2018-06-20T05:16:59.304Z,18.35
2018-06-20T05:19:28.446Z,18.38
2018-06-20T05:21:57.569Z,18.42
2018-06-20T05:24:26.706Z,18.49
2018-06-20T05:26:55.837Z,18.57
2018-06-20T05:29:24.953Z,18.65
2018-06-20T05:31:54.102Z,18.70
2018-06-20T05:34:30.054Z,18.77
2018-06-20T05:36:59.174Z,18.80
2018-06-20T05:39:28.285Z,18.84
2018-06-20T05:41:57.425Z,18.89
2018-06-20T05:44:26.541Z,18.97
2018-06-20T05:46:55.950Z,19.03
2018-06-20T05:49:25.081Z,19.09
2018-06-20T05:51:54.324Z,19.16
2018-06-20T05:54:23.430Z,19.22
2018-06-20T05:56:52.565Z,19.29
2018-06-20T05:59:22.015Z,19.34
2018-06-20T06:01:51.141Z,19.41
2018-06-20T06:04:20.256Z,19.49
2018-06-20T06:06:49.477Z,19.54
2018-06-20T06:09:18.621Z,19.61
2018-06-20T06:11:47.753Z,19.64
2018-06-20T06:14:16.892Z,19.68
2018-06-20T06:16:46.067Z,19.74
2018-06-20T06:19:15.142Z,19.88
2018-06-20T06:21:44.257Z,19.90
2018-06-20T06:24:13.382Z,19.93
2018-06-20T06:26:42.505Z,19.99
2018-06-20T06:29:11.641Z,20.03
2018-06-20T06:31:40.976Z,20.09
2018-06-20T06:34:09.877Z,20.18
2018-06-20T06:36:39.042Z,20.22
2018-06-20T06:39:10.911Z,20.28
2018-06-20T06:41:40.297Z,20.35
2018-06-20T06:44:09.493Z,20.42
2018-06-20T06:46:38.621Z,20.48
2018-06-20T06:49:07.737Z,20.55
2018-06-20T06:51:36.940Z,20.64
2018-06-20T06:54:06.080Z,20.72
2018-06-20T06:56:35.278Z,20.83
2018-06-20T06:59:04.417Z,20.86
2018-06-20T07:01:33.529Z,20.93
2018-06-20T07:04:02.690Z,20.98
2018-06-20T07:06:31.809Z,21.06
2018-06-20T07:09:00.936Z,21.16
2018-06-20T07:11:30.109Z,21.23
2018-06-20T07:13:59.216Z,21.29
2018-06-20T07:16:28.325Z,21.38
2018-06-20T07:18:57.696Z,21.42
2018-06-20T07:21:26.812Z,21.51
2018-06-20T07:23:55.977Z,21.54
2018-06-20T07:26:25.101Z,21.65
2018-06-20T07:28:54.437Z,21.68
2018-06-20T07:31:23.569Z,21.76
2018-06-20T07:33:52.708Z,21.83
2018-06-20T07:36:21.921Z,21.92
2018-06-20T07:38:50.967Z,21.98
2018-06-20T07:41:20.175Z,22.07
2018-06-20T07:43:49.429Z,22.14
2018-06-20T07:46:18.582Z,22.16
2018-06-20T07:48:47.685Z,22.25
2018-06-20T07:51:16.821Z,22.43
2018-06-20T07:53:45.949Z,22.52
2018-06-20T07:56:15.101Z,22.61
2018-06-20T07:58:49.670Z,22.71
2018-06-20T08:01:41.293Z,22.74
2018-06-20T08:04:15.945Z,22.80
2018-06-20T08:06:50.330Z,22.82
2018-06-20T08:09:24.674Z,22.93
2018-06-20T08:11:59.098Z,23.04
2018-06-20T08:14:33.629Z,23.07
2018-06-20T08:17:09.618Z,23.06
2018-06-20T08:20:43.802Z,23.15
2018-06-20T08:23:12.917Z,23.33
2018-06-20T08:25:42.056Z,23.49
2018-06-20T08:28:12.226Z,23.59
2018-06-20T08:30:41.351Z,23.67
2018-06-20T08:33:10.475Z,23.71
2018-06-20T08:35:39.609Z,23.84
2018-06-20T08:38:08.734Z,23.89
2018-06-20T08:40:37.893Z,23.96
2018-06-20T08:43:07.025Z,24.01
2018-06-20T08:45:36.165Z,24.20
2018-06-20T08:48:05.331Z,24.15
2018-06-20T08:50:34.460Z,24.16
2018-06-20T08:53:03.667Z,24.35
2018-06-20T08:55:32.722Z,24.37
2018-06-20T08:58:01.851Z,24.37
2018-06-20T09:00:36.429Z,24.48
2018-06-20T09:03:05.564Z,24.51
2018-06-20T09:05:39.994Z,24.63
2018-06-20T09:08:14.425Z,24.62
2018-06-20T09:10:48.825Z,24.63
2018-06-20T09:13:23.158Z,24.68
2018-06-20T09:15:57.565Z,24.90
2018-06-20T09:18:32.043Z,24.92
2018-06-20T09:21:01.175Z,25.00
2018-06-20T09:23:30.323Z,25.04
2018-06-20T09:25:59.461Z,25.10
2018-06-20T09:28:28.633Z,25.22
2018-06-20T09:30:58.138Z,25.21
2018-06-20T09:33:27.273Z,25.29
2018-06-20T09:35:56.417Z,25.21
2018-06-20T09:38:25.625Z,25.26
2018-06-20T09:40:54.749Z,25.42
2018-06-20T09:43:23.905Z,25.46
2018-06-20T09:45:53.353Z,25.53
2018-06-20T09:48:22.477Z,25.61
2018-06-20T09:50:55.825Z,25.80
2018-06-20T09:53:25.337Z,25.87
2018-06-20T09:55:54.618Z,25.96
2018-06-20T09:58:23.749Z,26.00
2018-06-20T10:00:58.280Z,26.21
2018-06-20T10:03:32.682Z,26.08
2018-06-20T10:06:07.057Z,26.15
2018-06-20T10:08:41.477Z,26.07
2018-06-20T10:11:15.929Z,25.90
2018-06-20T10:13:46.235Z,25.73
2018-06-20T10:16:15.561Z,25.73
2018-06-20T10:18:44.696Z,25.84
2018-06-20T10:21:13.860Z,26.02
2018-06-20T10:23:43.048Z,26.19
2018-06-20T10:26:12.165Z,26.21
2018-06-20T10:28:41.301Z,26.32
2018-06-20T10:31:10.433Z,26.26
2018-06-20T10:33:39.551Z,26.16
2018-06-20T10:36:08.669Z,26.10
2018-06-20T10:38:38.040Z,25.85
2018-06-20T10:41:06.965Z,25.64
2018-06-20T10:43:36.099Z,25.63
2018-06-20T10:46:10.657Z,25.89
2018-06-20T10:48:39.729Z,25.98
2018-06-20T10:51:08.873Z,26.19
2018-06-20T10:53:38.000Z,26.26
2018-06-20T10:56:07.133Z,26.33
2018-06-20T10:58:41.625Z,26.47
2018-06-20T11:01:16.033Z,26.59
2018-06-20T11:03:50.357Z,26.70
2018-06-20T11:06:24.769Z,26.76
2018-06-20T11:08:59.098Z,26.72
2018-06-20T11:11:33.521Z,26.86
2018-06-20T11:14:02.647Z,26.92
2018-06-20T11:16:31.785Z,27.03
2018-06-20T11:19:00.905Z,27.09
2018-06-20T11:21:30.034Z,27.12
2018-06-20T11:23:59.149Z,26.92
2018-06-20T11:26:28.302Z,27.06
2018-06-20T11:28:57.444Z,27.00
2018-06-20T11:31:26.590Z,26.99
2018-06-20T11:33:55.732Z,27.03
2018-06-20T11:36:24.869Z,27.09
2018-06-20T11:38:53.988Z,26.96
2018-06-20T11:41:23.135Z,27.12
2018-06-20T11:43:52.260Z,27.17
2018-06-20T11:46:26.737Z,27.21
2018-06-20T11:48:55.997Z,27.29
2018-06-20T11:51:25.139Z,27.36
2018-06-20T11:53:54.281Z,27.35
2018-06-20T11:56:23.434Z,27.32
2018-06-20T11:58:57.917Z,27.28
2018-06-20T12:01:32.317Z,27.27
2018-06-20T12:04:06.674Z,27.21
2018-06-20T12:06:41.071Z,27.28
2018-06-20T12:09:15.581Z,27.26
2018-06-20T12:11:50.173Z,27.35
2018-06-20T12:14:24.616Z,27.60
2018-06-20T12:16:53.151Z,27.59
2018-06-20T12:19:27.765Z,27.27
2018-06-20T12:22:02.514Z,27.09
2018-06-20T12:24:36.985Z,27.23
2018-06-20T12:27:11.641Z,27.26
2018-06-20T12:29:46.118Z,27.48
2018-06-20T12:32:20.545Z,27.51
2018-06-20T12:34:55.021Z,27.47
2018-06-20T12:37:29.274Z,27.62
2018-06-20T12:40:04.541Z,27.64
2018-06-20T12:42:39.219Z,27.80
2018-06-20T12:45:10.929Z,27.90
2018-06-20T12:47:45.504Z,27.92
2018-06-20T12:50:19.968Z,28.01
2018-06-20T12:52:49.780Z,28.01
2018-06-20T12:55:18.909Z,28.07
2018-06-20T12:57:48.052Z,28.03
2018-06-20T13:00:17.189Z,27.97
2018-06-20T13:02:46.589Z,27.96
2018-06-20T13:05:16.217Z,27.98
2018-06-20T13:07:45.381Z,28.01
2018-06-20T13:10:14.523Z,28.09
2018-06-20T13:12:43.641Z,28.12
2018-06-20T13:15:12.746Z,28.15
2018-06-20T13:17:41.889Z,28.11
2018-06-20T13:20:11.020Z,28.07
2018-06-20T13:22:40.165Z,28.06
2018-06-20T13:25:09.301Z,28.14
2018-06-20T13:27:43.661Z,28.10
2018-06-20T13:30:13.303Z,28.26
2018-06-20T13:32:47.681Z,28.17
2018-06-20T13:35:22.149Z,28.12
2018-06-20T13:37:56.780Z,28.22
2018-06-20T13:40:31.219Z,28.14
2018-06-20T13:43:05.654Z,28.10
2018-06-20T13:45:39.958Z,28.11
2018-06-20T13:48:39.881Z,28.05
2018-06-20T13:51:09.021Z,28.11
2018-06-20T13:53:38.175Z,28.02
2018-06-20T13:56:07.420Z,28.01
2018-06-20T13:58:36.472Z,27.98
2018-06-20T14:01:05.622Z,27.99
2018-06-20T14:03:34.737Z,28.06
2018-06-20T14:06:04.125Z,28.08
2018-06-20T14:08:33.245Z,28.02
2018-06-20T14:11:02.372Z,28.00
2018-06-20T14:13:31.522Z,28.00
2018-06-20T14:16:00.657Z,28.11
2018-06-20T14:18:29.787Z,27.98
2018-06-20T14:21:03.907Z,28.04
2018-06-20T14:23:33.029Z,27.97
2018-06-20T14:26:02.165Z,27.91
2018-06-20T14:28:31.302Z,27.82
2018-06-20T14:31:05.816Z,27.80
2018-06-20T14:33:40.168Z,27.89
2018-06-20T14:36:14.620Z,27.87
2018-06-20T14:38:49.118Z,27.73
2018-06-20T14:41:23.289Z,27.80
2018-06-20T14:43:58.037Z,27.68
2018-06-20T14:46:29.823Z,27.52
2018-06-20T14:48:58.962Z,27.61
2018-06-20T14:51:28.096Z,27.53
2018-06-20T14:53:57.229Z,27.68
2018-06-20T14:56:26.341Z,27.58
2018-06-20T14:58:55.481Z,27.52
2018-06-20T15:01:24.602Z,27.43
2018-06-20T15:03:53.730Z,27.25
2018-06-20T15:06:22.853Z,27.11
2018-06-20T15:08:51.993Z,27.27
2018-06-20T15:11:21.122Z,27.19
2018-06-20T15:13:50.278Z,27.11
2018-06-20T15:16:24.737Z,27.04
2018-06-20T15:18:53.918Z,26.97
2018-06-20T15:21:23.041Z,26.92
2018-06-20T15:23:52.173Z,26.87
2018-06-20T15:26:26.684Z,26.79
2018-06-20T15:29:01.040Z,26.52
2018-06-20T15:31:35.613Z,26.40
2018-06-20T15:34:10.080Z,26.43
2018-06-20T15:36:44.710Z,26.36
2018-06-20T15:39:13.805Z,26.37
2018-06-20T15:41:42.938Z,26.22
2018-06-20T15:44:12.065Z,26.14
2018-06-20T15:46:41.181Z,26.16
2018-06-20T15:49:10.297Z,26.05
2018-06-20T15:51:39.451Z,26.14
2018-06-20T15:54:08.585Z,26.06
2018-06-20T15:56:37.713Z,26.07
2018-06-20T15:59:07.161Z,25.95
2018-06-20T16:01:36.306Z,25.92
2018-06-20T16:04:05.428Z,25.85
2018-06-20T16:06:34.557Z,25.82
2018-06-20T16:09:08.885Z,25.81
2018-06-20T16:11:38.014Z,25.78
2018-06-20T16:14:07.141Z,25.74
2018-06-20T16:16:36.284Z,25.69
2018-06-20T16:19:10.881Z,25.65
2018-06-20T16:21:45.345Z,25.66
2018-06-20T16:24:20.013Z,25.59
2018-06-20T16:26:54.500Z,25.55
2018-06-20T16:29:28.905Z,25.51
2018-06-20T16:31:58.249Z,25.48
2018-06-20T16:34:27.425Z,25.52
2018-06-20T16:36:56.570Z,25.49
2018-06-20T16:39:25.727Z,25.46
2018-06-20T16:41:54.870Z,25.44
2018-06-20T16:44:24.022Z,25.40
2018-06-20T16:46:53.152Z,25.38
2018-06-20T16:49:22.273Z,25.39
2018-06-20T16:51:51.407Z,25.33
2018-06-20T16:54:20.534Z,25.37
2018-06-20T16:56:52.564Z,25.33
2018-06-20T16:59:21.769Z,25.30
2018-06-20T17:01:56.417Z,25.26
2018-06-20T17:04:25.561Z,25.23
2018-06-20T17:06:54.691Z,25.26
2018-06-20T17:09:23.869Z,25.21
2018-06-20T17:11:58.357Z,25.20
2018-06-20T17:14:32.757Z,25.14
2018-06-20T17:17:07.109Z,25.14
2018-06-20T17:19:41.510Z,25.21
2018-06-20T17:22:15.921Z,25.15
2018-06-20T17:24:50.403Z,25.07
2018-06-20T17:27:19.506Z,25.03
2018-06-20T17:29:48.714Z,25.03
2018-06-20T17:32:18.173Z,24.99
2018-06-20T17:34:47.252Z,24.98
2018-06-20T17:37:16.370Z,24.98
2018-06-20T17:39:45.496Z,24.93
2018-06-20T17:42:14.627Z,24.89
2018-06-20T17:44:43.780Z,24.85
2018-06-20T17:47:13.131Z,24.84
2018-06-20T17:49:42.272Z,24.83
2018-06-20T17:52:11.442Z,24.81
2018-06-20T17:54:40.564Z,24.81
2018-06-20T17:57:09.705Z,24.76
2018-06-20T17:59:38.828Z,24.73
2018-06-20T18:02:08.485Z,24.69
2018-06-20T18:04:42.824Z,24.68
2018-06-20T18:07:17.216Z,24.67
2018-06-20T18:09:51.516Z,24.64
2018-06-20T18:12:26.091Z,24.61
2018-06-20T18:15:00.556Z,24.59
2018-06-20T18:17:29.677Z,24.57
2018-06-20T18:19:58.821Z,24.55
2018-06-20T18:22:27.965Z,24.47
2018-06-20T18:24:57.125Z,24.40
2018-06-20T18:27:26.288Z,24.37
2018-06-20T18:29:55.548Z,24.31
2018-06-20T18:32:24.803Z,24.28
2018-06-20T18:34:54.099Z,24.21
2018-06-20T18:37:23.423Z,24.17
2018-06-20T18:39:58.034Z,24.15
2018-06-20T18:42:27.234Z,24.11
2018-06-20T18:44:56.907Z,24.08
2018-06-20T18:47:31.535Z,24.05
2018-06-20T18:50:00.700Z,24.00
2018-06-20T18:52:29.905Z,23.97
2018-06-20T18:54:59.509Z,23.93
2018-06-20T18:57:33.929Z,23.91
2018-06-20T19:00:08.329Z,23.88
2018-06-20T19:02:42.739Z,23.85
2018-06-20T19:05:17.293Z,23.83
2018-06-20T19:07:51.821Z,23.82
2018-06-20T19:10:20.943Z,23.79
2018-06-20T19:12:50.225Z,23.75
2018-06-20T19:15:19.573Z,23.73
2018-06-20T19:17:48.733Z,23.69
2018-06-20T19:20:18.003Z,23.62
2018-06-20T19:22:47.225Z,23.55
2018-06-20T19:25:16.568Z,23.50
2018-06-20T19:27:45.894Z,23.44
2018-06-20T19:30:15.205Z,23.40
2018-06-20T19:32:44.410Z,23.33
2018-06-20T19:35:13.619Z,23.30
2018-06-20T19:37:42.885Z,23.24
2018-06-20T19:40:12.153Z,23.20
2018-06-20T19:42:41.408Z,23.18
2018-06-20T19:45:10.611Z,23.13
2018-06-20T19:47:39.769Z,23.09
2018-06-20T19:50:08.968Z,23.06
2018-06-20T19:52:38.152Z,23.01
2018-06-20T19:55:07.301Z,22.98
2018-06-20T19:57:36.450Z,22.94
2018-06-20T20:00:05.735Z,22.89
2018-06-20T20:02:34.883Z,22.89
2018-06-20T20:05:03.993Z,22.82
2018-06-20T20:07:33.112Z,22.79
2018-06-20T20:10:02.247Z,22.78
2018-06-20T20:12:31.372Z,22.73
2018-06-20T20:15:07.085Z,22.71
2018-06-20T20:17:36.200Z,22.69
2018-06-20T20:20:06.164Z,22.67
2018-06-20T20:22:35.309Z,22.63
2018-06-20T20:25:04.557Z,22.57
2018-06-20T20:27:34.635Z,22.53
2018-06-20T20:30:03.838Z,22.51
2018-06-20T20:32:33.045Z,22.47
2018-06-20T20:35:02.247Z,22.43
2018-06-20T20:37:31.390Z,22.44
2018-06-20T20:40:00.518Z,22.39
2018-06-20T20:42:29.694Z,22.37
2018-06-20T20:44:58.942Z,22.36
2018-06-20T20:47:28.093Z,22.32
2018-06-20T20:49:57.390Z,22.28
2018-06-20T20:52:26.585Z,22.29
2018-06-20T20:54:55.741Z,22.26
2018-06-20T20:57:24.871Z,22.23
2018-06-20T20:59:54.034Z,22.19
2018-06-20T21:02:23.253Z,22.14
2018-06-20T21:04:52.421Z,22.14
2018-06-20T21:07:21.597Z,22.13
2018-06-20T21:09:50.730Z,22.13
2018-06-20T21:12:19.889Z,22.09
2018-06-20T21:14:49.017Z,22.08
2018-06-20T21:19:46.423Z,22.00
2018-06-20T21:22:15.616Z,22.01
2018-06-20T21:24:44.782Z,22.00
2018-06-20T21:27:14.398Z,21.93
2018-06-20T21:29:43.561Z,21.90
2018-06-20T21:32:12.711Z,21.89
2018-06-20T21:34:41.858Z,21.88
2018-06-20T21:37:10.982Z,21.85
2018-06-20T21:39:40.122Z,21.82
2018-06-20T21:42:09.269Z,21.80
2018-06-20T21:44:38.160Z,21.79
2018-06-20T21:47:07.054Z,21.75
2018-06-20T21:49:36.357Z,21.75
2018-06-20T21:52:05.484Z,21.72
2018-06-20T21:54:34.601Z,21.68
2018-06-20T21:57:03.807Z,21.63
2018-06-20T21:59:32.924Z,21.61
2018-06-20T22:02:02.269Z,21.60
2018-06-20T22:04:31.433Z,21.58
2018-06-20T22:07:00.561Z,21.55
2018-06-20T22:09:29.725Z,21.54
2018-06-20T22:11:58.833Z,21.49
2018-06-20T22:14:27.961Z,21.49
2018-06-20T22:16:57.090Z,21.47
2018-06-20T22:19:26.221Z,21.45
2018-06-20T22:21:55.346Z,21.43
2018-06-20T22:24:24.557Z,21.41
2018-06-20T22:26:53.726Z,21.39
2018-06-20T22:29:22.895Z,21.38
2018-06-20T22:31:52.026Z,21.33
2018-06-20T22:34:21.195Z,21.33
2018-06-20T22:36:50.337Z,21.30
2018-06-20T22:39:19.473Z,21.31
2018-06-20T22:41:48.638Z,21.31
2018-06-20T22:44:17.761Z,21.29
2018-06-20T22:46:46.899Z,21.25
2018-06-20T22:49:16.081Z,21.22
2018-06-20T22:51:45.213Z,21.21
2018-06-20T22:54:14.368Z,21.24
2018-06-20T22:56:43.505Z,21.22
2018-06-20T22:59:12.705Z,21.21
2018-06-20T23:01:41.818Z,21.23
2018-06-20T23:04:10.933Z,21.19
2018-06-20T23:06:40.105Z,21.18
2018-06-20T23:09:10.450Z,21.18
2018-06-20T23:11:45.029Z,21.19
2018-06-20T23:14:14.276Z,21.26
2018-06-20T23:16:43.589Z,21.23
2018-06-20T23:19:12.990Z,21.23
2018-06-20T23:21:42.789Z,21.22
2018-06-20T23:24:11.920Z,21.23
2018-06-20T23:26:41.062Z,21.20
2018-06-20T23:29:10.200Z,21.19
2018-06-20T23:31:39.341Z,21.17
2018-06-20T23:34:08.504Z,21.12
2018-06-20T23:36:37.685Z,21.12
2018-06-20T23:39:09.538Z,21.12
2018-06-20T23:41:39.264Z,21.09
2018-06-20T23:44:08.393Z,21.01
2018-06-20T23:46:37.520Z,20.97
2018-06-20T23:49:06.649Z,20.98
2018-06-20T23:51:35.896Z,20.94
2018-06-20T23:54:05.018Z,20.91
2018-06-20T23:56:34.136Z,20.88
2018-06-20T23:59:03.273Z,20.89
